Time;durP1;ratioP1;P1;durP2;ratioP2;P2;SDS_P1;SDS_P2;PMS_P1;PMS_P2;Temp;Humidity;BMP_temperature;BMP_pressure;BME280_temperature;BME280_humidity;BME280_pressure;Samples;Min_cycle;Max_cycle;Signal;HPM_P1;HPM_P2
2022/08/05 00:00:49;;;;;;;6.18;2.10;;;18.00;99.90;;;;;;5056927;28;20400;-71
2022/08/05 00:03:15;;;;;;;10.05;2.20;;;18.00;99.90;;;;;;5065068;28;20040;-72
2022/08/05 00:05:42;;;;;;;7.22;1.95;;;18.00;99.90;;;;;;5061268;28;20097;-70
2022/08/05 00:08:08;;;;;;;6.53;2.00;;;18.00;99.90;;;;;;5064191;28;20437;-70
2022/08/05 00:10:34;;;;;;;5.03;1.95;;;18.00;99.90;;;;;;5057307;28;20379;-69
2022/08/05 00:12:59;;;;;;;6.85;1.83;;;18.00;99.90;;;;;;5063401;28;20052;-70
2022/08/05 00:15:25;;;;;;;7.35;2.00;;;17.90;99.90;;;;;;5060608;28;20036;-70
2022/08/05 00:17:51;;;;;;;8.07;2.33;;;17.90;99.90;;;;;;5040463;28;20037;-71
2022/08/05 00:20:16;;;;;;;8.82;2.20;;;18.00;99.90;;;;;;5062240;28;20102;-71
2022/08/05 00:22:42;;;;;;;7.05;2.03;;;18.00;99.90;;;;;;5055119;28;20501;-70
2022/08/05 00:25:08;;;;;;;7.28;2.15;;;17.90;99.90;;;;;;5052595;28;20083;-69
2022/08/05 00:27:33;;;;;;;6.32;1.88;;;17.90;99.90;;;;;;5054678;28;21705;-70
2022/08/05 00:29:59;;;;;;;11.50;2.20;;;17.90;99.90;;;;;;5056172;28;20056;-70
2022/08/05 00:32:25;;;;;;;7.07;2.08;;;17.90;99.90;;;;;;5057397;28;20501;-69
2022/08/05 00:34:50;;;;;;;9.43;2.30;;;17.90;99.90;;;;;;5061231;28;20492;-69
2022/08/05 00:37:16;;;;;;;7.85;1.92;;;17.80;99.90;;;;;;5059496;28;20488;-70
2022/08/05 00:39:42;;;;;;;9.73;2.45;;;17.80;99.90;;;;;;5059427;28;20055;-71
2022/08/05 00:42:07;;;;;;;5.88;2.17;;;17.80;99.90;;;;;;5058452;28;20408;-70
2022/08/05 00:44:33;;;;;;;8.52;2.25;;;17.80;99.90;;;;;;5058380;28;20050;-70
2022/08/05 00:46:58;;;;;;;8.95;2.42;;;17.70;99.90;;;;;;5067260;28;20535;-70
2022/08/05 00:49:24;;;;;;;8.65;2.60;;;17.70;99.90;;;;;;5059978;28;20080;-69
2022/08/05 00:51:50;;;;;;;7.95;2.42;;;17.70;99.90;;;;;;5055692;28;20777;-70
2022/08/05 00:54:15;;;;;;;8.45;2.78;;;17.60;99.90;;;;;;5055248;28;20041;-69
2022/08/05 00:56:41;;;;;;;10.40;2.88;;;17.70;99.90;;;;;;5057127;28;20760;-69
2022/08/05 00:59:07;;;;;;;11.82;2.53;;;17.60;99.90;;;;;;5055694;28;20055;-69
2022/08/05 01:01:33;;;;;;;8.13;2.60;;;17.60;99.90;;;;;;5047680;28;20425;-70
2022/08/05 01:03:59;;;;;;;8.98;3.17;;;17.60;99.90;;;;;;5051920;28;20052;-70
2022/08/05 01:06:25;;;;;;;10.25;3.40;;;17.60;99.90;;;;;;5051779;28;20043;-70
2022/08/05 01:08:50;;;;;;;8.32;2.85;;;17.60;99.90;;;;;;5047390;28;20049;-70
2022/08/05 01:11:18;;;;;;;9.35;2.97;;;17.60;99.90;;;;;;5051243;28;20045;-70
2022/08/05 01:14:03;;;;;;;9.63;3.05;;;17.60;99.90;;;;;;5051146;28;20404;-70
2022/08/05 01:17:09;;;;;;;8.00;2.78;;;17.50;99.90;;;;;;5053469;28;21322;-69
2022/08/05 01:19:58;;;;;;;7.38;2.38;;;17.50;99.90;;;;;;5051706;28;20225;-69
2022/08/05 01:22:44;;;;;;;7.82;2.50;;;17.50;99.90;;;;;;5049502;28;20071;-69
2022/08/05 01:25:38;;;;;;;8.60;2.47;;;17.50;99.90;;;;;;5050779;28;20478;-69
2022/08/05 01:28:12;;;;;;;7.85;2.30;;;17.50;99.90;;;;;;5054755;28;20052;-69
2022/08/05 01:31:01;;;;;;;9.88;2.40;;;17.50;99.90;;;;;;5034251;28;21622;-69
2022/08/05 01:33:33;;;;;;;6.00;2.30;;;17.50;99.90;;;;;;5054786;28;20513;-70
2022/08/05 01:36:02;;;;;;;5.65;1.90;;;17.60;99.90;;;;;;5058394;28;20057;-69
2022/08/05 01:38:29;;;;;;;9.10;2.42;;;17.60;99.90;;;;;;5040114;28;20055;-69
2022/08/05 01:40:57;;;;;;;10.38;2.72;;;17.60;99.90;;;;;;5057378;28;20040;-70
2022/08/05 01:43:24;;;;;;;6.57;2.55;;;17.60;99.90;;;;;;5052182;28;20048;-69
2022/08/05 01:45:52;;;;;;;8.48;2.03;;;17.60;99.90;;;;;;5056755;28;20048;-70
2022/08/05 01:48:19;;;;;;;8.30;2.45;;;17.60;99.90;;;;;;5059548;28;20468;-69
2022/08/05 01:50:45;;;;;;;8.27;2.45;;;17.60;99.90;;;;;;5053000;28;20037;-70
2022/08/05 01:53:15;;;;;;;11.13;2.75;;;17.60;99.90;;;;;;5039313;28;20419;-69
2022/08/05 01:55:44;;;;;;;10.10;2.20;;;17.60;99.90;;;;;;5056197;28;20465;-70
2022/08/05 01:58:12;;;;;;;5.93;2.10;;;17.60;99.90;;;;;;5056152;28;20401;-69
2022/08/05 02:00:42;;;;;;;8.02;2.25;;;17.60;99.90;;;;;;5052234;28;20595;-69
2022/08/05 02:03:26;;;;;;;8.30;2.67;;;17.60;99.90;;;;;;5054221;28;20055;-70
2022/08/05 02:05:53;;;;;;;5.65;2.35;;;17.60;99.90;;;;;;5054114;28;20044;-69
2022/08/05 02:08:20;;;;;;;8.55;2.72;;;17.60;99.90;;;;;;5070597;28;20174;-70
2022/08/05 02:10:55;;;;;;;11.00;2.45;;;17.60;99.90;;;;;;5059375;28;20044;-69
2022/08/05 02:14:01;;;;;;;9.32;2.40;;;17.60;99.90;;;;;;5079927;28;20047;-69
2022/08/05 02:16:46;;;;;;;6.55;2.15;;;17.60;99.90;;;;;;5055307;28;20389;-70
2022/08/05 02:19:26;;;;;;;6.80;2.50;;;17.50;99.90;;;;;;5059712;28;20079;-70
2022/08/05 02:22:15;;;;;;;7.47;2.65;;;17.50;99.90;;;;;;5060221;28;20397;-70
2022/08/05 02:24:46;;;;;;;8.40;2.60;;;17.60;99.90;;;;;;5067084;28;20558;-70
2022/08/05 02:27:13;;;;;;;8.70;2.83;;;17.50;99.90;;;;;;5059882;28;20541;-70
2022/08/05 02:29:43;;;;;;;7.78;2.30;;;17.50;99.90;;;;;;5063475;28;20044;-70
2022/08/05 02:32:10;;;;;;;6.43;2.08;;;17.50;99.90;;;;;;5058891;28;20504;-70
2022/08/05 02:34:36;;;;;;;7.35;2.53;;;17.40;99.90;;;;;;5042289;28;20077;-70
2022/08/05 02:37:06;;;;;;;7.03;2.22;;;17.40;99.90;;;;;;5055503;28;20482;-69
2022/08/05 02:39:35;;;;;;;5.32;2.47;;;17.40;99.90;;;;;;5057244;28;20506;-69
2022/08/05 02:42:02;;;;;;;8.80;2.58;;;17.40;99.90;;;;;;5058531;28;20041;-70
2022/08/05 02:44:30;;;;;;;6.63;2.50;;;17.30;99.90;;;;;;5062465;28;20050;-69
2022/08/05 02:46:57;;;;;;;7.10;2.35;;;17.30;99.90;;;;;;5061121;28;20485;-69
2022/08/05 02:49:26;;;;;;;7.80;2.67;;;17.30;99.90;;;;;;5056997;28;20123;-69
2022/08/05 02:51:52;;;;;;;6.18;2.30;;;17.30;99.90;;;;;;5059634;28;20037;-70
2022/08/05 02:54:19;;;;;;;8.75;2.80;;;17.30;99.90;;;;;;5058436;28;20088;-70
2022/08/05 02:56:45;;;;;;;7.20;2.22;;;17.30;99.90;;;;;;5058528;28;20137;-70
2022/08/05 02:59:12;;;;;;;8.90;2.72;;;17.30;99.90;;;;;;5061581;28;20715;-70
2022/08/05 03:01:40;;;;;;;6.53;2.70;;;17.20;99.90;;;;;;5059814;28;20043;-69
2022/08/05 03:04:09;;;;;;;7.55;2.22;;;17.20;99.90;;;;;;5039688;28;20175;-69
2022/08/05 03:06:36;;;;;;;6.63;2.30;;;17.20;99.90;;;;;;5061036;28;20048;-70
2022/08/05 03:09:02;;;;;;;5.75;2.40;;;17.20;99.90;;;;;;5061863;28;20520;-70
2022/08/05 03:11:28;;;;;;;7.47;2.50;;;17.10;99.90;;;;;;5057154;28;20045;-70
2022/08/05 03:13:54;;;;;;;7.70;2.90;;;17.10;99.90;;;;;;5059254;28;20051;-70
2022/08/05 03:16:20;;;;;;;8.00;2.53;;;17.00;99.90;;;;;;5058462;28;20041;-70
2022/08/05 03:18:47;;;;;;;10.38;2.83;;;17.10;99.90;;;;;;5060541;28;20043;-69
2022/08/05 03:21:12;;;;;;;7.88;2.70;;;17.00;99.90;;;;;;5054735;28;20041;-69
2022/08/05 03:23:41;;;;;;;9.20;3.25;;;17.00;99.90;;;;;;5056848;28;20055;-69
2022/08/05 03:26:07;;;;;;;7.38;3.08;;;17.00;99.90;;;;;;5061702;28;20854;-68
2022/08/05 03:28:32;;;;;;;9.48;3.25;;;16.90;99.90;;;;;;5058030;28;20049;-70
2022/08/05 03:30:59;;;;;;;7.00;2.95;;;16.90;99.90;;;;;;5061207;28;20041;-69
2022/08/05 03:33:27;;;;;;;8.30;3.35;;;16.90;99.90;;;;;;5057927;28;20055;-70
2022/08/05 03:35:55;;;;;;;10.00;3.90;;;16.80;99.90;;;;;;5058677;28;20111;-69
2022/08/05 03:38:22;;;;;;;8.77;3.75;;;16.80;99.90;;;;;;5060012;28;20151;-69
2022/08/05 03:40:48;;;;;;;8.73;3.22;;;16.80;99.90;;;;;;5045418;28;20109;-69
2022/08/05 03:43:16;;;;;;;7.53;3.58;;;16.80;99.90;;;;;;5061604;28;20055;-69
2022/08/05 03:45:42;;;;;;;8.82;3.83;;;16.80;99.90;;;;;;5065655;28;20045;-70
2022/08/05 03:48:08;;;;;;;7.88;3.10;;;16.70;99.90;;;;;;5059761;28;20041;-69
2022/08/05 03:50:42;;;;;;;11.50;4.00;;;16.70;99.90;;;;;;5059464;28;20365;-69
2022/08/05 03:53:13;;;;;;;8.55;3.70;;;16.70;99.90;;;;;;5060400;28;20036;-69
2022/08/05 03:55:49;;;;;;;8.02;3.60;;;16.70;99.90;;;;;;5042538;28;20052;-69
2022/08/05 03:58:17;;;;;;;9.85;3.65;;;16.70;99.90;;;;;;5036721;28;20139;-69
2022/08/05 04:00:44;;;;;;;9.43;3.42;;;16.60;99.90;;;;;;5057567;28;20048;-69
2022/08/05 04:03:12;;;;;;;9.15;3.60;;;16.60;99.90;;;;;;5061248;28;20072;-69
2022/08/05 04:05:39;;;;;;;7.35;3.75;;;16.60;99.90;;;;;;5055688;28;20043;-69
2022/08/05 04:08:10;;;;;;;7.80;3.50;;;16.60;99.90;;;;;;5055469;28;20131;-69
2022/08/05 04:10:37;;;;;;;8.45;3.97;;;16.70;99.90;;;;;;5067357;28;20041;-69
2022/08/05 04:13:02;;;;;;;10.18;4.53;;;16.60;99.90;;;;;;5069861;28;20050;-69
2022/08/05 04:15:29;;;;;;;8.73;4.00;;;16.60;99.90;;;;;;5055978;28;20040;-69
2022/08/05 04:17:55;;;;;;;10.30;3.67;;;16.60;99.90;;;;;;5049880;28;20044;-69
2022/08/05 04:20:22;;;;;;;7.50;3.60;;;16.60;99.90;;;;;;5049319;28;20127;-70
2022/08/05 04:22:49;;;;;;;8.32;3.40;;;16.50;99.90;;;;;;5031288;28;20055;-70
2022/08/05 04:25:15;;;;;;;7.65;4.10;;;16.50;99.90;;;;;;5041416;28;20428;-69
2022/08/05 04:27:41;;;;;;;10.38;4.47;;;16.50;99.90;;;;;;5056890;28;20059;-69
2022/08/05 04:30:08;;;;;;;10.93;4.05;;;16.50;99.90;;;;;;5057118;28;20044;-70
2022/08/05 04:32:34;;;;;;;10.50;3.95;;;16.50;99.90;;;;;;5058570;28;20497;-69
2022/08/05 04:35:00;;;;;;;8.73;4.55;;;16.40;99.90;;;;;;5059347;28;20191;-70
2022/08/05 04:37:25;;;;;;;10.40;4.90;;;16.50;99.90;;;;;;5043420;28;20052;-70
2022/08/05 04:39:51;;;;;;;12.13;4.95;;;16.50;99.90;;;;;;5056184;28;20061;-69
2022/08/05 04:42:17;;;;;;;9.65;4.35;;;16.40;99.90;;;;;;5048212;28;20566;-69
2022/08/05 04:44:43;;;;;;;8.23;4.30;;;16.50;99.90;;;;;;5042924;28;20052;-69
2022/08/05 04:47:08;;;;;;;10.23;4.20;;;16.50;99.90;;;;;;5060909;28;20056;-70
2022/08/05 04:49:34;;;;;;;8.13;4.50;;;16.50;99.90;;;;;;5046059;28;20043;-69
2022/08/05 04:52:00;;;;;;;8.25;4.30;;;16.50;99.90;;;;;;5051899;28;20044;-70
2022/08/05 04:54:26;;;;;;;10.80;4.18;;;16.50;99.90;;;;;;5039902;28;20071;-70
2022/08/05 04:56:54;;;;;;;8.35;4.38;;;16.50;99.90;;;;;;5054737;28;20498;-69
2022/08/05 04:59:21;;;;;;;10.20;4.50;;;16.70;99.90;;;;;;5050236;28;20055;-69
2022/08/05 05:01:52;;;;;;;11.70;4.00;;;16.60;99.90;;;;;;5033881;28;20040;-70
2022/08/05 05:04:17;;;;;;;11.70;4.20;;;16.60;99.90;;;;;;5039942;28;20189;-70
2022/08/05 05:06:43;;;;;;;8.38;3.97;;;16.70;99.90;;;;;;5037142;28;20041;-70
2022/08/05 05:09:10;;;;;;;8.07;3.97;;;16.60;99.90;;;;;;5061758;28;20445;-69
2022/08/05 05:11:36;;;;;;;7.40;4.32;;;16.70;99.90;;;;;;5045228;28;20406;-69
2022/08/05 05:14:02;;;;;;;8.20;3.85;;;16.70;99.90;;;;;;5066051;28;20041;-69
2022/08/05 05:16:28;;;;;;;8.85;4.40;;;16.80;99.90;;;;;;5063847;28;20044;-70
2022/08/05 05:18:54;;;;;;;9.40;3.78;;;16.70;99.90;;;;;;5066349;28;20508;-70
2022/08/05 05:21:19;;;;;;;8.05;3.75;;;16.70;99.90;;;;;;5066348;28;20087;-69
2022/08/05 05:23:45;;;;;;;9.75;4.30;;;16.70;99.90;;;;;;5066056;28;20033;-69
2022/08/05 05:26:11;;;;;;;8.45;3.85;;;16.70;99.90;;;;;;5049574;28;20036;-69
2022/08/05 05:28:36;;;;;;;6.00;3.47;;;16.70;99.90;;;;;;5062706;28;20051;-69
2022/08/05 05:31:02;;;;;;;9.27;3.80;;;16.80;99.90;;;;;;5067590;28;20044;-70
2022/08/05 05:33:28;;;;;;;7.05;3.55;;;16.60;99.90;;;;;;5064691;28;20041;-69
2022/08/05 05:35:53;;;;;;;9.13;3.92;;;16.60;99.90;;;;;;5068314;28;20044;-69
2022/08/05 05:38:19;;;;;;;7.30;3.63;;;16.60;99.90;;;;;;5067039;28;20149;-69
2022/08/05 05:40:45;;;;;;;9.77;3.70;;;16.60;99.90;;;;;;5058809;28;20048;-69
2022/08/05 05:43:11;;;;;;;6.80;3.47;;;16.60;99.90;;;;;;5064764;28;20085;-69
2022/08/05 05:45:36;;;;;;;6.75;3.78;;;16.60;99.90;;;;;;5065900;28;20047;-70
2022/08/05 05:48:05;;;;;;;6.47;3.25;;;16.60;99.90;;;;;;5061668;28;20493;-70
2022/08/05 05:50:32;;;;;;;8.32;3.58;;;16.60;99.90;;;;;;5065119;28;20526;-69
2022/08/05 05:52:58;;;;;;;7.38;4.07;;;16.60;99.90;;;;;;5044161;28;20044;-70
2022/08/05 05:55:23;;;;;;;8.73;3.63;;;16.60;99.90;;;;;;5074449;28;20045;-69
2022/08/05 05:57:49;;;;;;;6.57;4.05;;;16.50;99.90;;;;;;5064647;28;20041;-70
2022/08/05 06:00:19;;;;;;;7.18;3.70;;;16.40;99.90;;;;;;5062366;28;20040;-69
2022/08/05 06:02:46;;;;;;;6.95;3.30;;;16.60;99.90;;;;;;5063301;28;20048;-69
2022/08/05 06:05:14;;;;;;;6.82;3.60;;;16.80;99.90;;;;;;5057145;28;20433;-70
2022/08/05 06:07:40;;;;;;;6.72;2.67;;;16.90;99.90;;;;;;5061684;28;20048;-70
2022/08/05 06:10:08;;;;;;;7.97;3.45;;;16.90;99.90;;;;;;5059964;28;20102;-70
2022/08/05 06:12:35;;;;;;;8.13;3.25;;;16.90;99.90;;;;;;5063008;28;20044;-69
2022/08/05 06:15:02;;;;;;;6.13;2.92;;;16.90;99.90;;;;;;5062628;28;20036;-71
2022/08/05 06:17:28;;;;;;;8.32;3.33;;;17.00;99.90;;;;;;5061754;28;20052;-70
2022/08/05 06:19:54;;;;;;;8.55;2.90;;;17.10;99.90;;;;;;5061678;28;20452;-70
2022/08/05 06:22:28;;;;;;;5.97;2.60;;;17.10;99.90;;;;;;5066534;28;20044;-70
2022/08/05 06:24:54;;;;;;;5.63;2.60;;;17.20;99.90;;;;;;5062499;28;20122;-71
2022/08/05 06:27:20;;;;;;;6.55;2.55;;;17.20;99.90;;;;;;5063643;28;20045;-70
2022/08/05 06:29:46;;;;;;;7.53;2.92;;;17.30;99.90;;;;;;5060861;28;20040;-69
2022/08/05 06:32:12;;;;;;;7.82;2.20;;;17.40;99.90;;;;;;5062556;28;20083;-69
2022/08/05 06:34:38;;;;;;;7.55;2.00;;;17.40;99.90;;;;;;5059329;28;20453;-69
2022/08/05 06:37:03;;;;;;;4.80;2.10;;;17.60;99.90;;;;;;5061816;28;20036;-70
2022/08/05 06:39:29;;;;;;;4.80;1.95;;;18.20;99.90;;;;;;5067313;28;20040;-71
2022/08/05 06:41:56;;;;;;;7.65;2.10;;;18.20;99.90;;;;;;5060401;28;20139;-69
2022/08/05 06:44:22;;;;;;;7.78;1.90;;;18.30;99.90;;;;;;5066380;28;20045;-70
2022/08/05 06:46:48;;;;;;;4.35;1.67;;;18.30;99.90;;;;;;5044624;28;20043;-70
2022/08/05 06:49:15;;;;;;;5.30;1.55;;;18.50;99.90;;;;;;5064983;28;20067;-71
2022/08/05 06:51:40;;;;;;;7.72;1.63;;;18.50;99.90;;;;;;5064693;28;20048;-70
2022/08/05 06:54:06;;;;;;;7.07;1.65;;;18.60;99.90;;;;;;5064565;28;20044;-70
2022/08/05 06:56:32;;;;;;;4.93;1.30;;;18.70;99.90;;;;;;5064302;28;20051;-70
2022/08/05 06:58:58;;;;;;;3.05;0.90;;;18.70;99.90;;;;;;5057477;28;20032;-72
2022/08/05 07:01:24;;;;;;;4.50;1.00;;;18.80;99.90;;;;;;5045653;28;20044;-71
2022/08/05 07:03:49;;;;;;;4.82;1.00;;;18.80;99.90;;;;;;5060495;28;20051;-70
2022/08/05 07:06:15;;;;;;;2.92;1.00;;;18.90;99.90;;;;;;5062041;28;20049;-69
2022/08/05 07:08:43;;;;;;;4.10;1.15;;;19.00;99.90;;;;;;5059226;28;20246;-70
2022/08/05 07:11:09;;;;;;;4.13;1.00;;;18.90;99.90;;;;;;5036515;28;20049;-70
2022/08/05 07:19:04;;;;;;;3.05;1.05;;;19.00;99.90;;;;;;5047975;28;20109;-71
2022/08/05 07:21:29;;;;;;;4.15;1.10;;;19.10;99.90;;;;;;5045854;28;20049;-70
2022/08/05 07:23:55;;;;;;;2.78;0.90;;;19.20;99.90;;;;;;5043125;28;20413;-70
2022/08/05 07:26:22;;;;;;;3.60;1.10;;;19.50;99.90;;;;;;5039206;28;20052;-70
2022/08/05 07:28:54;;;;;;;3.25;0.80;;;19.80;99.90;;;;;;5039667;28;20572;-70
2022/08/05 07:31:20;;;;;;;5.50;0.90;;;20.10;99.90;;;;;;5043552;28;20064;-70
2022/08/05 07:33:45;;;;;;;6.40;0.90;;;20.40;99.90;;;;;;5043993;28;20068;-70
2022/08/05 07:36:11;;;;;;;3.25;0.77;;;20.40;99.90;;;;;;5049447;28;20053;-70
2022/08/05 07:38:37;;;;;;;3.22;0.80;;;20.40;99.90;;;;;;5027728;28;20494;-70
2022/08/05 07:41:05;;;;;;;3.90;0.70;;;20.50;99.90;;;;;;5045761;28;20095;-70
2022/08/05 07:43:31;;;;;;;2.97;0.60;;;20.80;99.90;;;;;;5044275;28;20097;-72
2022/08/05 07:45:56;;;;;;;2.33;0.70;;;20.80;99.90;;;;;;5042990;28;20439;-72
2022/08/05 07:48:22;;;;;;;2.80;0.80;;;21.10;99.90;;;;;;5044094;28;20041;-73
2022/08/05 07:50:48;;;;;;;3.25;1.00;;;21.80;99.90;;;;;;5048904;28;20589;-71
2022/08/05 07:53:13;;;;;;;4.18;0.80;;;23.20;99.90;;;;;;5051926;28;20665;-73
2022/08/05 07:55:39;;;;;;;5.20;0.88;;;23.80;99.90;;;;;;5049278;28;20035;-71
2022/08/05 07:58:05;;;;;;;3.92;0.80;;;23.50;99.90;;;;;;5046841;28;20051;-71
2022/08/05 08:00:30;;;;;;;4.47;0.60;;;23.30;99.90;;;;;;5043169;28;20740;-71
2022/08/05 08:02:56;;;;;;;1.98;0.57;;;22.80;99.90;;;;;;5045169;28;20362;-70
2022/08/05 08:05:22;;;;;;;4.43;0.70;;;22.80;99.90;;;;;;5044461;28;20089;-72
2022/08/05 08:07:47;;;;;;;4.13;0.80;;;23.10;99.90;;;;;;5026754;28;20043;-70
2022/08/05 08:10:13;;;;;;;7.07;0.90;;;23.50;99.90;;;;;;5043634;28;20044;-69
2022/08/05 08:12:39;;;;;;;7.85;0.90;;;23.90;99.90;;;;;;5044993;28;20585;-69
2022/08/05 08:15:06;;;;;;;16.25;4.88;;;23.80;99.90;;;;;;5042970;28;20044;-69
2022/08/05 08:17:33;;;;;;;20.08;7.40;;;23.50;99.90;;;;;;5041617;28;20076;-71
2022/08/05 08:19:59;;;;;;;8.50;1.48;;;23.40;99.90;;;;;;5053314;28;20123;-71
2022/08/05 08:22:26;;;;;;;9.60;1.85;;;23.60;99.90;;;;;;5040160;28;20040;-70
2022/08/05 08:24:52;;;;;;;20.67;5.03;;;23.80;99.90;;;;;;5034416;28;20402;-72
2022/08/05 08:27:18;;;;;;;6.32;0.90;;;24.00;99.90;;;;;;5040829;28;20040;-70
2022/08/05 08:29:43;;;;;;;6.05;1.15;;;24.10;99.90;;;;;;5022274;28;20513;-69
2022/08/05 08:32:09;;;;;;;9.10;0.98;;;24.30;99.90;;;;;;5035757;28;21564;-70
2022/08/05 08:34:35;;;;;;;8.27;1.38;;;24.60;99.90;;;;;;5040665;28;20048;-70
2022/08/05 08:37:01;;;;;;;5.22;0.90;;;24.90;99.90;;;;;;5048682;28;20041;-71
2022/08/05 08:39:27;;;;;;;7.68;1.45;;;25.00;99.90;;;;;;5043115;28;20049;-71
2022/08/05 08:41:55;;;;;;;2.75;0.57;;;24.70;99.90;;;;;;5045882;28;20134;-71
2022/08/05 08:44:23;;;;;;;2.22;0.55;;;24.30;99.90;;;;;;5028638;28;20044;-69
2022/08/05 08:46:52;;;;;;;5.50;1.27;;;24.20;99.90;;;;;;5044397;28;20555;-70
2022/08/05 08:49:22;;;;;;;12.20;3.38;;;24.40;99.90;;;;;;5052541;28;20049;-70
2022/08/05 08:51:52;;;;;;;54.72;17.40;;;24.60;99.90;;;;;;5041649;28;20091;-70
2022/08/05 08:54:17;;;;;;;25.07;6.20;;;24.80;99.90;;;;;;5044846;28;20501;-71
2022/08/05 08:56:43;;;;;;;8.00;2.28;;;25.00;99.90;;;;;;5039389;28;20055;-70
2022/08/05 08:59:10;;;;;;;3.75;0.70;;;25.30;99.90;;;;;;5028563;28;20052;-69
2022/08/05 09:01:38;;;;;;;3.38;0.80;;;25.20;99.90;;;;;;5046158;28;20102;-68
2022/08/05 09:04:04;;;;;;;2.35;0.60;;;25.00;99.90;;;;;;5053103;28;20417;-68
2022/08/05 09:06:30;;;;;;;1.90;0.60;;;25.20;99.90;;;;;;5040990;28;20051;-69
2022/08/05 09:09:00;;;;;;;4.70;0.80;;;25.40;99.90;;;;;;5043276;28;20044;-68
2022/08/05 09:11:26;;;;;;;4.47;0.60;;;25.60;99.90;;;;;;5051853;28;20074;-70
2022/08/05 09:13:54;;;;;;;5.53;0.73;;;25.70;99.90;;;;;;5047086;28;20045;-70
2022/08/05 09:16:19;;;;;;;2.20;0.60;;;25.80;99.90;;;;;;5048955;28;20036;-69
2022/08/05 09:18:46;;;;;;;7.38;1.05;;;25.90;99.90;;;;;;5045922;28;20048;-67
2022/08/05 09:21:11;;;;;;;3.28;0.55;;;26.10;99.90;;;;;;5044431;28;20581;-67
2022/08/05 09:23:37;;;;;;;3.13;0.70;;;26.20;99.90;;;;;;5040632;28;20048;-68
2022/08/05 09:26:11;;;;;;;2.80;0.82;;;26.30;99.90;;;;;;5022785;28;20045;-67
2022/08/05 09:28:39;;;;;;;5.18;0.70;;;26.30;99.90;;;;;;5050612;28;20104;-67
2022/08/05 09:31:07;;;;;;;3.92;0.70;;;26.20;99.90;;;;;;5057087;28;20052;-68
2022/08/05 09:33:49;;;;;;;4.13;0.70;;;26.10;99.90;;;;;;5037409;28;20561;-67
2022/08/05 09:36:15;;;;;;;3.67;0.57;;;26.20;99.90;;;;;;5041502;28;20036;-69
2022/08/05 09:38:58;;;;;;;3.72;0.88;;;26.20;99.90;;;;;;5048084;28;20206;-67
2022/08/05 09:41:24;;;;;;;5.32;0.50;;;25.70;99.80;;;;;;5050865;28;20040;-67
2022/08/05 09:43:50;;;;;;;3.90;0.88;;;25.20;99.90;;;;;;5052360;28;20148;-67
2022/08/05 09:46:28;;;;;;;2.80;0.50;;;25.00;99.50;;;;;;5048548;28;20049;-67
2022/08/05 09:48:55;;;;;;;2.55;0.65;;;25.00;99.90;;;;;;5053253;28;20041;-67
2022/08/05 09:51:35;;;;;;;3.90;0.60;;;25.10;98.80;;;;;;5056376;28;20396;-68
2022/08/05 09:54:03;;;;;;;4.25;1.15;;;25.30;98.60;;;;;;5039519;28;20606;-68
2022/08/05 09:56:36;;;;;;;1.75;0.43;;;25.50;98.10;;;;;;5050666;28;20045;-70
2022/08/05 09:59:10;;;;;;;3.90;0.65;;;25.70;96.40;;;;;;5051930;28;20776;-70
2022/08/05 10:01:41;;;;;;;2.17;0.40;;;25.90;97.30;;;;;;5046795;28;20055;-68
2022/08/05 10:04:12;;;;;;;6.03;0.68;;;26.00;95.20;;;;;;5045169;28;20045;-67
2022/08/05 10:06:39;;;;;;;3.38;0.40;;;25.80;93.70;;;;;;5050609;28;20956;-68
2022/08/05 10:09:14;;;;;;;2.40;0.50;;;25.60;95.60;;;;;;5052295;28;20048;-68
2022/08/05 10:11:41;;;;;;;4.30;0.50;;;25.60;94.80;;;;;;5053056;28;20063;-68
2022/08/05 10:14:24;;;;;;;3.63;0.65;;;25.60;92.60;;;;;;5067851;28;20053;-68
2022/08/05 10:16:52;;;;;;;1.63;0.40;;;25.60;91.80;;;;;;5056517;28;20053;-68
2022/08/05 10:19:18;;;;;;;2.38;0.30;;;25.60;91.00;;;;;;5058964;28;20051;-65
2022/08/05 10:21:48;;;;;;;0.75;0.52;;;25.80;91.70;;;;;;5048511;28;20048;-68
2022/08/05 10:24:17;;;;;;;3.60;0.60;;;25.90;90.40;;;;;;5056087;28;20254;-67
2022/08/05 10:26:45;;;;;;;1.60;0.40;;;26.00;90.20;;;;;;5051753;28;20483;-67
2022/08/05 10:29:11;;;;;;;3.42;0.40;;;26.00;90.40;;;;;;5045089;28;20486;-67
2022/08/05 10:31:40;;;;;;;1.02;0.35;;;26.00;87.00;;;;;;5051575;28;20049;-66
2022/08/05 10:34:08;;;;;;;3.08;0.93;;;25.90;81.40;;;;;;5051371;28;20127;-66
2022/08/05 10:36:36;;;;;;;2.00;0.50;;;25.80;81.00;;;;;;5045298;28;20056;-67
2022/08/05 10:39:07;;;;;;;1.92;0.32;;;25.80;81.90;;;;;;5050388;28;20428;-67
2022/08/05 10:42:22;;;;;;;1.02;0.10;;;25.70;81.80;;;;;;5061444;28;20036;-67
2022/08/05 10:44:50;;;;;;;1.38;0.30;;;25.70;78.80;;;;;;5049459;28;20052;-67
2022/08/05 10:47:16;;;;;;;2.10;0.20;;;25.60;80.50;;;;;;5052833;28;20092;-67
2022/08/05 10:50:08;;;;;;;2.85;0.30;;;25.60;78.20;;;;;;5054201;28;20402;-67
2022/08/05 10:53:18;;;;;;;2.05;0.40;;;25.50;77.30;;;;;;5048111;28;20104;-67
2022/08/05 10:56:01;;;;;;;1.95;0.50;;;25.50;79.20;;;;;;5054920;28;20387;-67
2022/08/05 10:58:27;;;;;;;1.13;0.55;;;25.50;80.20;;;;;;5050202;28;20400;-67
2022/08/05 11:00:54;;;;;;;1.80;0.30;;;25.60;79.90;;;;;;5054118;28;20674;-66
2022/08/05 11:03:20;;;;;;;2.08;0.43;;;25.70;81.10;;;;;;5054919;28;20056;-67
2022/08/05 11:06:06;;;;;;;2.85;0.30;;;25.80;80.30;;;;;;5041798;28;20111;-68
2022/08/05 11:08:32;;;;;;;2.65;0.40;;;25.80;77.90;;;;;;5060120;28;20055;-67
2022/08/05 11:11:34;;;;;;;4.82;0.40;;;25.70;79.40;;;;;;5056478;28;20041;-67
2022/08/05 11:14:00;;;;;;;1.33;0.40;;;25.30;79.20;;;;;;5052397;28;20130;-68
2022/08/05 11:16:26;;;;;;;3.92;0.35;;;24.80;80.20;;;;;;5063187;28;20057;-69
2022/08/05 11:19:27;;;;;;;2.15;0.30;;;24.60;81.90;;;;;;5062791;28;20033;-68
2022/08/05 11:21:53;;;;;;;;;;;24.50;82.80;;;;;;5066058;28;20063;-68
2022/08/05 11:24:20;;;;;;;3.47;0.40;;;24.40;80.80;;;;;;5062484;28;20019;-69
2022/08/05 11:26:47;;;;;;;6.13;0.70;;;24.00;82.30;;;;;;5063596;28;20037;-68
2022/08/05 11:29:36;;;;;;;5.53;0.80;;;23.70;84.90;;;;;;5066308;28;20075;-68
2022/08/05 11:32:40;;;;;;;1.65;0.52;;;23.50;85.50;;;;;;5065345;28;20103;-68
2022/08/05 11:35:06;;;;;;;4.88;0.70;;;23.50;87.60;;;;;;5018859;28;20060;-67
2022/08/05 11:37:57;;;;;;;7.68;0.60;;;23.60;88.70;;;;;;5018387;28;20466;-67
2022/08/05 11:41:11;;;;;;;4.43;0.73;;;23.50;87.90;;;;;;5027298;28;20064;-68
2022/08/05 11:43:42;;;;;;;5.20;0.80;;;23.60;90.00;;;;;;5058395;28;20056;-68
2022/08/05 11:46:07;;;;;;;5.73;0.80;;;23.40;90.40;;;;;;5079239;28;20040;-67
2022/08/05 11:48:34;;;;;;;4.93;0.52;;;23.20;91.30;;;;;;5066366;28;20048;-68
2022/08/05 11:51:01;;;;;;;6.10;0.68;;;22.90;92.10;;;;;;5066844;28;20040;-67
2022/08/05 11:53:27;;;;;;;4.88;0.68;;;22.70;92.20;;;;;;5064709;28;20378;-68
2022/08/05 11:55:54;;;;;;;5.75;0.73;;;22.60;91.80;;;;;;5065866;28;20056;-68
2022/08/05 11:58:40;;;;;;;4.57;0.50;;;22.60;93.10;;;;;;5051412;28;20588;-68
2022/08/05 12:01:14;;;;;;;2.63;0.57;;;22.60;92.40;;;;;;5053498;28;20565;-69
2022/08/05 12:03:52;;;;;;;4.18;0.82;;;22.60;92.50;;;;;;5065442;28;20117;-68
2022/08/05 12:06:23;;;;;;;3.38;0.77;;;22.50;92.30;;;;;;5060321;28;20127;-68
2022/08/05 12:08:50;;;;;;;;;;;22.70;92.60;;;;;;5064108;28;20040;-67
2022/08/05 12:11:24;;;;;;;3.30;0.70;;;23.00;92.80;;;;;;5059237;28;19974;-64
2022/08/05 12:13:56;;;;;;;3.25;0.57;;;23.30;92.40;;;;;;5056131;28;20056;-68
2022/08/05 12:16:24;;;;;;;6.03;0.60;;;23.30;91.20;;;;;;5060751;28;20397;-67
2022/08/05 12:18:50;;;;;;;3.95;0.65;;;23.20;91.50;;;;;;5065139;28;20133;-67
2022/08/05 12:21:19;;;;;;;2.13;0.63;;;23.40;91.60;;;;;;5066649;28;20370;-66
2022/08/05 12:23:57;;;;;;;3.50;0.50;;;23.60;92.10;;;;;;5066057;28;20048;-67
2022/08/05 12:26:23;;;;;;;4.00;0.57;;;23.50;91.20;;;;;;5065870;28;20135;-65
2022/08/05 12:28:50;;;;;;;7.32;1.85;;;23.30;91.40;;;;;;5065736;28;20575;-66
2022/08/05 12:31:16;;;;;;;3.70;0.70;;;23.00;91.50;;;;;;5062146;28;20061;-67
2022/08/05 12:33:44;;;;;;;2.78;0.70;;;22.80;92.20;;;;;;5051843;28;20389;-66
2022/08/05 12:36:10;;;;;;;2.58;0.50;;;22.60;92.40;;;;;;5060938;28;20028;-67
2022/08/05 12:38:38;;;;;;;2.90;0.57;;;22.40;93.00;;;;;;5045129;28;20052;-66
2022/08/05 12:41:07;;;;;;;3.05;0.60;;;22.40;93.00;;;;;;5058814;28;20127;-67
2022/08/05 12:43:33;;;;;;;3.45;0.60;;;22.30;92.70;;;;;;5062515;28;20451;-67
2022/08/05 12:46:02;;;;;;;3.53;0.60;;;22.20;93.00;;;;;;5061722;28;20052;-66
2022/08/05 12:48:37;;;;;;;3.63;0.60;;;22.20;93.40;;;;;;5060833;28;20088;-67
2022/08/05 12:51:12;;;;;;;1.60;0.40;;;22.30;93.80;;;;;;5041893;28;20161;-66
2022/08/05 12:53:42;;;;;;;2.97;0.50;;;22.20;92.90;;;;;;5064641;28;20041;-67
2022/08/05 12:56:20;;;;;;;2.22;0.35;;;22.00;92.30;;;;;;5056481;28;20044;-67
2022/08/05 12:59:10;;;;;;;5.78;0.65;;;21.90;93.00;;;;;;5049558;28;20063;-67
2022/08/05 13:01:36;;;;;;;2.45;0.50;;;21.80;92.60;;;;;;5051817;28;20052;-66